PWSweather.com
Personal Weather Stations
Station Observations
LABLIDAR
PotenzaIT

PotenzaIT

Lat: 40.6467, Lon: 15.809

Elevation: 2395

Station Type: Oregon WMRS200

Latest ConditionsUpdated 8:30:25 AM GMT+01:01 Monday, Sep 1, 2014
Currently Today's Max Today's Min Today's Average
Temperature 73.5°F23.1°C 73.5°F23.1°C 69.6°F20.9°C 70.8°F21.6°C
Dew Point 52.7°F11.5°C 55.1°F12.8°C 52.3°F11.3°C 53.5°F11.9°C
Winds 2.8 mph NW4.5 kmh NW 4.6 mph ESE7.4 kmh ESE - 1.9 mph 3.1 kmh
Wind Gusts 7.4 mph11.9 kmh 9.8 mph15.8 kmh - -
Humidity 48% 56% 48% 54%
Pressure 27.46 in929.9 mb 27.58 in934.0 mb 27.43 in928.9 mb -
Hour Temp Dew Point Humidity Winds Wind Gusts Pressure Precip Precip Rate Daily Precip Total
08:30 AM 73.5°F23.1°C 52.7°F11.5°C 48% 2.8 mph NW4.5 kmh NW 7.4 mph11.9 kmh 27.46 in929.9 mb 0.00 in0.0 mm 0.00 in/hr0.0 mm/hr 0.00 in0.0 mm
08:25 AM 73.4°F23.0°C 52.5°F11.4°C 48% 2.7 mph N4.3 kmh N 8.5 mph13.7 kmh 27.43 in928.9 mb 0.00 in0.0 mm 0.00 in/hr0.0 mm/hr 0.00 in0.0 mm
08:20 AM 73.2°F22.9°C 52.9°F11.6°C 49% 3.5 mph SE5.6 kmh SE 8.5 mph13.7 kmh 27.43 in928.9 mb 0.00 in0.0 mm 0.00 in/hr0.0 mm/hr 0.00 in0.0 mm
08:15 AM 73.0°F22.8°C 52.8°F11.6°C 49% 4.0 mph SW6.4 kmh SW 6.5 mph10.5 kmh 27.43 in928.9 mb 0.00 in0.0 mm 0.00 in/hr0.0 mm/hr 0.00 in0.0 mm
08:10 AM 73.0°F22.8°C 52.7°F11.5°C 49% 1.6 mph N2.6 kmh N 4.9 mph7.9 kmh 27.43 in928.9 mb 0.00 in0.0 mm 0.00 in/hr0.0 mm/hr 0.00 in0.0 mm
08:05 AM 72.9°F22.7°C 52.6°F11.4°C 49% 1.2 mph SW1.9 kmh SW 3.4 mph5.5 kmh 27.43 in928.9 mb 0.00 in0.0 mm 0.00 in/hr0.0 mm/hr 0.00 in0.0 mm
08:00 AM 72.9°F22.7°C 52.6°F11.4°C 49% 1.9 mph NW3.1 kmh NW 3.4 mph5.5 kmh 27.43 in928.9 mb 0.00 in0.0 mm 0.00 in/hr0.0 mm/hr 0.00 in0.0 mm
07:55 AM 72.7°F22.6°C 52.5°F11.4°C 49% 0.4 mph NNW0.6 kmh NNW 3.4 mph5.5 kmh 27.46 in929.9 mb 0.00 in0.0 mm 0.00 in/hr0.0 mm/hr 0.00 in0.0 mm
07:50 AM 72.7°F22.6°C 52.4°F11.3°C 49% 2.6 mph NNE4.2 kmh NNE 4.9 mph7.9 kmh 27.46 in929.9 mb 0.00 in0.0 mm 0.00 in/hr0.0 mm/hr 0.00 in0.0 mm
07:45 AM 72.5°F22.5°C 52.3°F11.3°C 49% 3.0 mph NE4.8 kmh NE 4.9 mph7.9 kmh 27.46 in929.9 mb 0.00 in0.0 mm 0.00 in/hr0.0 mm/hr 0.00 in0.0 mm
07:40 AM 72.5°F22.5°C 52.3°F11.3°C 49% 1.0 mph SSE1.6 kmh SSE 3.8 mph6.1 kmh 27.46 in929.9 mb 0.00 in0.0 mm 0.00 in/hr0.0 mm/hr 0.00 in0.0 mm
07:35 AM 72.3°F22.4°C 52.6°F11.4°C 50% 2.1 mph NE3.4 kmh NE 3.8 mph6.1 kmh 27.46 in929.9 mb 0.00 in0.0 mm 0.00 in/hr0.0 mm/hr 0.00 in0.0 mm
07:30 AM 72.2°F22.3°C 52.5°F11.4°C 50% 1.5 mph N2.4 kmh N 3.1 mph5.0 kmh 27.46 in929.9 mb 0.00 in0.0 mm 0.00 in/hr0.0 mm/hr 0.00 in0.0 mm
07:25 AM 72.0°F22.2°C 52.3°F11.3°C 50% 1.2 mph NE1.9 kmh NE 3.1 mph5.0 kmh 27.46 in929.9 mb 0.00 in0.0 mm 0.00 in/hr0.0 mm/hr 0.00 in0.0 mm
07:20 AM 71.7°F22.1°C 52.6°F11.4°C 50% 1.9 mph NNE3.1 kmh NNE 4.0 mph6.4 kmh 27.46 in929.9 mb 0.00 in0.0 mm 0.00 in/hr0.0 mm/hr 0.00 in0.0 mm
07:15 AM 71.5°F21.9°C 52.6°F11.4°C 51% 1.7 mph NE2.7 kmh NE 4.0 mph6.4 kmh 27.46 in929.9 mb 0.00 in0.0 mm 0.00 in/hr0.0 mm/hr 0.00 in0.0 mm
07:10 AM 71.4°F21.9°C 52.9°F11.6°C 52% 2.5 mph N4.0 kmh N 3.4 mph5.5 kmh 27.46 in929.9 mb 0.00 in0.0 mm 0.00 in/hr0.0 mm/hr 0.00 in0.0 mm
07:05 AM 71.2°F21.8°C 52.7°F11.5°C 52% 0.5 mph NW0.8 kmh NW 4.3 mph6.9 kmh 27.46 in929.9 mb 0.00 in0.0 mm 0.00 in/hr0.0 mm/hr 0.00 in0.0 mm
07:00 AM 71.0°F21.7°C 52.9°F11.6°C 52% 2.1 mph ENE3.4 kmh ENE 5.8 mph9.3 kmh 27.46 in929.9 mb 0.00 in0.0 mm 0.00 in/hr0.0 mm/hr 0.00 in0.0 mm
06:55 AM 70.8°F21.6°C 52.9°F11.6°C 53% 2.5 mph NNE4.0 kmh NNE 5.8 mph9.3 kmh 27.46 in929.9 mb 0.00 in0.0 mm 0.00 in/hr0.0 mm/hr 0.00 in0.0 mm
06:50 AM 70.6°F21.4°C 53.1°F11.7°C 54% 1.5 mph WNW2.4 kmh WNW 5.8 mph9.3 kmh 27.46 in929.9 mb 0.00 in0.0 mm 0.00 in/hr0.0 mm/hr 0.00 in0.0 mm
06:45 AM 70.3°F21.3°C 52.9°F11.6°C 54% 2.6 mph NE4.2 kmh NE 5.8 mph9.3 kmh 27.46 in929.9 mb 0.00 in0.0 mm 0.00 in/hr0.0 mm/hr 0.00 in0.0 mm
06:40 AM 70.1°F21.2°C 53.1°F11.7°C 54% 0.4 mph NE0.6 kmh NE 3.1 mph5.0 kmh 27.46 in929.9 mb 0.00 in0.0 mm 0.00 in/hr0.0 mm/hr 0.00 in0.0 mm
06:35 AM 69.9°F21.1°C 53.0°F11.7°C 55% 0.7 mph SE1.1 kmh SE 1.6 mph2.6 kmh 27.46 in929.9 mb 0.00 in0.0 mm 0.00 in/hr0.0 mm/hr 0.00 in0.0 mm
06:30 AM 69.8°F21.0°C 52.9°F11.6°C 55% Calm Calm 3.6 mph5.8 kmh 27.46 in929.9 mb 0.00 in0.0 mm 0.00 in/hr0.0 mm/hr 0.00 in0.0 mm
06:25 AM 69.7°F20.9°C 53.2°F11.8°C 56% 2.2 mph NNW3.5 kmh NNW 4.3 mph6.9 kmh 27.49 in930.9 mb 0.00 in0.0 mm 0.00 in/hr0.0 mm/hr 0.00 in0.0 mm
06:20 AM 69.6°F20.9°C 53.2°F11.8°C 56% 2.3 mph N3.7 kmh N 4.3 mph6.9 kmh 27.49 in930.9 mb 0.00 in0.0 mm 0.00 in/hr0.0 mm/hr 0.00 in0.0 mm
06:15 AM 69.6°F20.9°C 53.2°F11.8°C 56% 1.9 mph NNE3.1 kmh NNE 3.8 mph6.1 kmh 27.49 in930.9 mb 0.00 in0.0 mm 0.00 in/hr0.0 mm/hr 0.00 in0.0 mm
06:10 AM 69.6°F20.9°C 53.2°F11.8°C 56% 1.7 mph ENE2.7 kmh ENE 4.0 mph6.4 kmh 27.49 in930.9 mb 0.00 in0.0 mm 0.00 in/hr0.0 mm/hr 0.00 in0.0 mm
06:05 AM 69.6°F20.9°C 53.2°F11.8°C 56% 1.4 mph E2.3 kmh E 4.0 mph6.4 kmh 27.49 in930.9 mb 0.00 in0.0 mm 0.00 in/hr0.0 mm/hr 0.00 in0.0 mm
06:00 AM 69.6°F20.9°C 53.2°F11.8°C 56% 2.5 mph NNE4.0 kmh NNE 4.3 mph6.9 kmh 27.49 in930.9 mb 0.00 in0.0 mm 0.00 in/hr0.0 mm/hr 0.00 in0.0 mm
05:55 AM 69.6°F20.9°C 53.2°F11.8°C 56% 2.1 mph N3.4 kmh N 4.3 mph6.9 kmh 27.52 in931.9 mb 0.00 in0.0 mm 0.00 in/hr0.0 mm/hr 0.00 in0.0 mm
05:50 AM 69.6°F20.9°C 53.2°F11.8°C 56% 1.5 mph ENE2.4 kmh ENE 3.4 mph5.5 kmh 27.52 in931.9 mb 0.00 in0.0 mm 0.00 in/hr0.0 mm/hr 0.00 in0.0 mm
05:45 AM 69.6°F20.9°C 53.2°F11.8°C 56% 2.1 mph N3.4 kmh N 3.8 mph6.1 kmh 27.52 in931.9 mb 0.00 in0.0 mm 0.00 in/hr0.0 mm/hr 0.00 in0.0 mm
05:40 AM 69.6°F20.9°C 53.2°F11.8°C 56% 2.7 mph NNE4.3 kmh NNE 4.3 mph6.9 kmh 27.49 in930.9 mb 0.00 in0.0 mm 0.00 in/hr0.0 mm/hr 0.00 in0.0 mm
05:35 AM 69.6°F20.9°C 53.2°F11.8°C 56% 2.2 mph WNW3.5 kmh WNW 7.6 mph12.2 kmh 27.49 in930.9 mb 0.00 in0.0 mm 0.00 in/hr0.0 mm/hr 0.00 in0.0 mm
05:30 AM 69.6°F20.9°C 53.3°F11.8°C 56% 0.6 mph N1.0 kmh N 7.6 mph12.2 kmh 27.49 in930.9 mb 0.00 in0.0 mm 0.00 in/hr0.0 mm/hr 0.00 in0.0 mm
05:25 AM 69.8°F21.0°C 53.2°F11.8°C 56% 1.2 mph S1.9 kmh S 4.7 mph7.6 kmh 27.49 in930.9 mb 0.00 in0.0 mm 0.00 in/hr0.0 mm/hr 0.00 in0.0 mm
05:20 AM 69.8°F21.0°C 53.4°F11.9°C 56% 1.4 mph S2.3 kmh S 2.9 mph4.7 kmh 27.49 in930.9 mb 0.00 in0.0 mm 0.00 in/hr0.0 mm/hr 0.00 in0.0 mm
05:15 AM 69.8°F21.0°C 53.2°F11.8°C 55% 1.2 mph SSW1.9 kmh SSW 3.4 mph5.5 kmh 27.49 in930.9 mb 0.00 in0.0 mm 0.00 in/hr0.0 mm/hr 0.00 in0.0 mm
05:10 AM 69.8°F21.0°C 53.3°F11.8°C 56% 1.6 mph SW2.6 kmh SW 3.8 mph6.1 kmh 27.46 in929.9 mb 0.00 in0.0 mm 0.00 in/hr0.0 mm/hr 0.00 in0.0 mm
05:05 AM 69.8°F21.0°C 53.3°F11.8°C 56% 0.2 mph N0.3 kmh N 7.8 mph12.6 kmh 27.46 in929.9 mb 0.00 in0.0 mm 0.00 in/hr0.0 mm/hr 0.00 in0.0 mm
05:00 AM 70.0°F21.1°C 53.1°F11.7°C 55% 4.6 mph ESE7.4 kmh ESE 7.8 mph12.6 kmh 27.46 in929.9 mb 0.00 in0.0 mm 0.00 in/hr0.0 mm/hr 0.00 in0.0 mm
04:55 AM 70.0°F21.1°C 53.1°F11.7°C 55% 1.2 mph SE1.9 kmh SE 4.0 mph6.4 kmh 27.46 in929.9 mb 0.00 in0.0 mm 0.00 in/hr0.0 mm/hr 0.00 in0.0 mm
04:50 AM 70.0°F21.1°C 53.1°F11.7°C 55% 1.7 mph SW2.7 kmh SW 5.8 mph9.3 kmh 27.46 in929.9 mb 0.00 in0.0 mm 0.00 in/hr0.0 mm/hr 0.00 in0.0 mm
04:45 AM 70.0°F21.1°C 53.1°F11.7°C 55% 2.5 mph SW4.0 kmh SW 5.8 mph9.3 kmh 27.46 in929.9 mb 0.00 in0.0 mm 0.00 in/hr0.0 mm/hr 0.00 in0.0 mm
04:40 AM 70.0°F21.1°C 53.1°F11.7°C 55% 1.5 mph NE2.4 kmh NE 2.9 mph4.7 kmh 27.46 in929.9 mb 0.00 in0.0 mm 0.00 in/hr0.0 mm/hr 0.00 in0.0 mm
04:35 AM 70.1°F21.2°C 53.2°F11.8°C 55% 1.1 mph NE1.8 kmh NE 2.9 mph4.7 kmh 27.46 in929.9 mb 0.00 in0.0 mm 0.00 in/hr0.0 mm/hr 0.00 in0.0 mm
04:30 AM 70.2°F21.2°C 53.3°F11.8°C 55% 1.5 mph SE2.4 kmh SE 5.8 mph9.3 kmh 27.46 in929.9 mb 0.00 in0.0 mm 0.00 in/hr0.0 mm/hr 0.00 in0.0 mm
04:25 AM 70.2°F21.2°C 53.3°F11.8°C 55% 2.9 mph W4.7 kmh W 6.3 mph10.1 kmh 27.49 in930.9 mb 0.00 in0.0 mm 0.00 in/hr0.0 mm/hr 0.00 in0.0 mm
04:20 AM 70.2°F21.2°C 53.3°F11.8°C 55% 2.7 mph WNW4.3 kmh WNW 6.3 mph10.1 kmh 27.49 in930.9 mb 0.00 in0.0 mm 0.00 in/hr0.0 mm/hr 0.00 in0.0 mm
04:15 AM 70.2°F21.2°C 53.3°F11.8°C 55% 2.7 mph W4.3 kmh W 5.8 mph9.3 kmh 27.49 in930.9 mb 0.00 in0.0 mm 0.00 in/hr0.0 mm/hr 0.00 in0.0 mm
04:10 AM 70.2°F21.2°C 53.3°F11.8°C 55% 2.7 mph S4.3 kmh S 5.4 mph8.7 kmh 27.49 in930.9 mb 0.00 in0.0 mm 0.00 in/hr0.0 mm/hr 0.00 in0.0 mm
04:05 AM 70.3°F21.3°C 53.4°F11.9°C 55% 2.7 mph WNW4.3 kmh WNW 5.6 mph9.0 kmh 27.49 in930.9 mb 0.00 in0.0 mm 0.00 in/hr0.0 mm/hr 0.00 in0.0 mm
04:00 AM 70.3°F21.3°C 53.4°F11.9°C 55% 1.8 mph WSW2.9 kmh WSW 5.6 mph9.0 kmh 27.49 in930.9 mb 0.00 in0.0 mm 0.00 in/hr0.0 mm/hr 0.00 in0.0 mm
03:55 AM 70.3°F21.3°C 53.4°F11.9°C 55% 2.6 mph NW4.2 kmh NW 4.3 mph6.9 kmh 27.52 in931.9 mb 0.00 in0.0 mm 0.00 in/hr0.0 mm/hr 0.00 in0.0 mm
03:50 AM 70.3°F21.3°C 53.4°F11.9°C 55% 2.5 mph NNE4.0 kmh NNE 4.3 mph6.9 kmh 27.52 in931.9 mb 0.00 in0.0 mm 0.00 in/hr0.0 mm/hr 0.00 in0.0 mm
03:45 AM 70.3°F21.3°C 53.4°F11.9°C 55% 2.0 mph NE3.2 kmh NE 4.9 mph7.9 kmh 27.52 in931.9 mb 0.00 in0.0 mm 0.00 in/hr0.0 mm/hr 0.00 in0.0 mm
03:40 AM 70.4°F21.3°C 53.5°F11.9°C 55% 2.2 mph S3.5 kmh S 4.9 mph7.9 kmh 27.52 in931.9 mb 0.00 in0.0 mm 0.00 in/hr0.0 mm/hr 0.00 in0.0 mm
03:35 AM 70.5°F21.4°C 53.6°F12.0°C 55% 0.6 mph ENE1.0 kmh ENE 6.5 mph10.5 kmh 27.52 in931.9 mb 0.00 in0.0 mm 0.00 in/hr0.0 mm/hr 0.00 in0.0 mm
03:30 AM 70.5°F21.4°C 53.6°F12.0°C 55% 1.7 mph S2.7 kmh S 6.5 mph10.5 kmh 27.52 in931.9 mb 0.00 in0.0 mm 0.00 in/hr0.0 mm/hr 0.00 in0.0 mm
03:25 AM 70.5°F21.4°C 53.6°F12.0°C 55% 2.2 mph N3.5 kmh N 4.3 mph6.9 kmh 27.52 in931.9 mb 0.00 in0.0 mm 0.00 in/hr0.0 mm/hr 0.00 in0.0 mm
03:20 AM 70.5°F21.4°C 53.6°F12.0°C 55% 0.7 mph ENE1.1 kmh ENE 4.3 mph6.9 kmh 27.52 in931.9 mb 0.00 in0.0 mm 0.00 in/hr0.0 mm/hr 0.00 in0.0 mm
03:15 AM 70.6°F21.4°C 53.7°F12.1°C 55% 1.9 mph S3.1 kmh S 4.3 mph6.9 kmh 27.52 in931.9 mb 0.00 in0.0 mm 0.00 in/hr0.0 mm/hr 0.00 in0.0 mm
03:10 AM 70.7°F21.5°C 53.8°F12.1°C 55% 2.1 mph WNW3.4 kmh WNW 4.3 mph6.9 kmh 27.55 in933.0 mb 0.00 in0.0 mm 0.00 in/hr0.0 mm/hr 0.00 in0.0 mm
03:05 AM 70.7°F21.5°C 53.8°F12.1°C 55% 1.5 mph ENE2.4 kmh ENE 4.3 mph6.9 kmh 27.55 in933.0 mb 0.00 in0.0 mm 0.00 in/hr0.0 mm/hr 0.00 in0.0 mm
03:00 AM 70.7°F21.5°C 53.8°F12.1°C 55% 1.2 mph NNW1.9 kmh NNW 3.6 mph5.8 kmh 27.55 in933.0 mb 0.00 in0.0 mm 0.00 in/hr0.0 mm/hr 0.00 in0.0 mm
02:55 AM 70.7°F21.5°C 53.8°F12.1°C 55% 1.7 mph N2.7 kmh N 4.5 mph7.2 kmh 27.52 in931.9 mb 0.00 in0.0 mm 0.00 in/hr0.0 mm/hr 0.00 in0.0 mm
02:50 AM 70.7°F21.5°C 54.1°F12.3°C 55% 2.7 mph ESE4.3 kmh ESE 4.5 mph7.2 kmh 27.52 in931.9 mb 0.00 in0.0 mm 0.00 in/hr0.0 mm/hr 0.00 in0.0 mm
02:45 AM 70.9°F21.6°C 54.4°F12.4°C 56% 1.9 mph SE3.1 kmh SE 3.4 mph5.5 kmh 27.52 in931.9 mb 0.00 in0.0 mm 0.00 in/hr0.0 mm/hr 0.00 in0.0 mm
02:40 AM 70.9°F21.6°C 54.4°F12.4°C 56% 1.8 mph NNE2.9 kmh NNE 4.0 mph6.4 kmh 27.52 in931.9 mb 0.00 in0.0 mm 0.00 in/hr0.0 mm/hr 0.00 in0.0 mm
02:35 AM 70.9°F21.6°C 54.4°F12.4°C 56% 1.7 mph SE2.7 kmh SE 6.3 mph10.1 kmh 27.52 in931.9 mb 0.00 in0.0 mm 0.00 in/hr0.0 mm/hr 0.00 in0.0 mm
02:30 AM 70.9°F21.6°C 54.4°F12.4°C 56% 3.0 mph SW4.8 kmh SW 6.3 mph10.1 kmh 27.52 in931.9 mb 0.00 in0.0 mm 0.00 in/hr0.0 mm/hr 0.00 in0.0 mm
02:25 AM 71.1°F21.7°C 54.6°F12.6°C 56% 1.2 mph S1.9 kmh S 4.3 mph6.9 kmh 27.55 in933.0 mb 0.00 in0.0 mm 0.00 in/hr0.0 mm/hr 0.00 in0.0 mm
02:20 AM 71.1°F21.7°C 54.6°F12.6°C 56% 1.5 mph SE2.4 kmh SE 3.4 mph5.5 kmh 27.55 in933.0 mb 0.00 in0.0 mm 0.00 in/hr0.0 mm/hr 0.00 in0.0 mm
02:15 AM 71.1°F21.7°C 54.6°F12.6°C 56% 2.5 mph E4.0 kmh E 4.0 mph6.4 kmh 27.55 in933.0 mb 0.00 in0.0 mm 0.00 in/hr0.0 mm/hr 0.00 in0.0 mm
02:10 AM 71.1°F21.7°C 54.6°F12.6°C 56% 0.8 mph SSE1.3 kmh SSE 5.4 mph8.7 kmh 27.55 in933.0 mb 0.00 in0.0 mm 0.00 in/hr0.0 mm/hr 0.00 in0.0 mm
02:05 AM 71.1°F21.7°C 54.6°F12.6°C 56% 2.2 mph WSW3.5 kmh WSW 7.4 mph11.9 kmh 27.55 in933.0 mb 0.00 in0.0 mm 0.00 in/hr0.0 mm/hr 0.00 in0.0 mm
02:00 AM 71.1°F21.7°C 54.6°F12.6°C 56% 3.4 mph WSW5.5 kmh WSW 9.8 mph15.8 kmh 27.55 in933.0 mb 0.00 in0.0 mm 0.00 in/hr0.0 mm/hr 0.00 in0.0 mm
01:55 AM 71.2°F21.8°C 54.8°F12.7°C 56% 3.6 mph SE5.8 kmh SE 9.8 mph15.8 kmh 27.58 in934.0 mb 0.00 in0.0 mm 0.00 in/hr0.0 mm/hr 0.00 in0.0 mm
01:50 AM 71.2°F21.8°C 54.8°F12.7°C 56% 4.6 mph SW7.4 kmh SW 7.8 mph12.6 kmh 27.58 in934.0 mb 0.00 in0.0 mm 0.00 in/hr0.0 mm/hr 0.00 in0.0 mm
01:45 AM 71.2°F21.8°C 54.8°F12.7°C 56% 1.5 mph SE2.4 kmh SE 4.0 mph6.4 kmh 27.58 in934.0 mb 0.00 in0.0 mm 0.00 in/hr0.0 mm/hr 0.00 in0.0 mm
01:40 AM 71.2°F21.8°C 54.8°F12.7°C 56% 0.4 mph ENE0.6 kmh ENE 3.4 mph5.5 kmh 27.52 in931.9 mb 0.00 in0.0 mm 0.00 in/hr0.0 mm/hr 0.00 in0.0 mm
01:35 AM 71.4°F21.9°C 54.9°F12.7°C 56% 2.3 mph N3.7 kmh N 3.1 mph5.0 kmh 27.52 in931.9 mb 0.00 in0.0 mm 0.00 in/hr0.0 mm/hr 0.00 in0.0 mm
01:30 AM 71.4°F21.9°C 54.9°F12.7°C 56% 0.7 mph E1.1 kmh E 4.0 mph6.4 kmh 27.52 in931.9 mb 0.00 in0.0 mm 0.00 in/hr0.0 mm/hr 0.00 in0.0 mm
01:25 AM 71.4°F21.9°C 54.9°F12.7°C 56% 1.7 mph N2.7 kmh N 4.3 mph6.9 kmh 27.55 in933.0 mb 0.00 in0.0 mm 0.00 in/hr0.0 mm/hr 0.00 in0.0 mm
01:20 AM 71.4°F21.9°C 54.9°F12.7°C 56% 1.1 mph E1.8 kmh E 4.3 mph6.9 kmh 27.55 in933.0 mb 0.00 in0.0 mm 0.00 in/hr0.0 mm/hr 0.00 in0.0 mm
01:15 AM 71.4°F21.9°C 54.9°F12.7°C 56% 1.2 mph S1.9 kmh S 6.9 mph11.1 kmh 27.55 in933.0 mb 0.00 in0.0 mm 0.00 in/hr0.0 mm/hr 0.00 in0.0 mm
01:10 AM 71.5°F21.9°C 55.0°F12.8°C 56% 1.8 mph ESE2.9 kmh ESE 6.9 mph11.1 kmh 27.55 in933.0 mb 0.00 in0.0 mm 0.00 in/hr0.0 mm/hr 0.00 in0.0 mm
01:05 AM 71.6°F22.0°C 55.1°F12.8°C 56% 1.8 mph ESE2.9 kmh ESE 5.4 mph8.7 kmh 27.55 in933.0 mb 0.00 in0.0 mm 0.00 in/hr0.0 mm/hr 0.00 in0.0 mm
01:00 AM 71.6°F22.0°C 55.1°F12.8°C 56% 1.9 mph E3.1 kmh E 5.4 mph8.7 kmh 27.55 in933.0 mb 0.00 in0.0 mm 0.00 in/hr0.0 mm/hr 0.00 in0.0 mm